createdAt,value
2019-01-23T00:01:13.772Z,50.80
2019-01-23T00:04:08.264Z,53.17
2019-01-23T00:07:02.539Z,50.60
2019-01-23T00:09:56.927Z,51.07
2019-01-23T00:12:50.873Z,52.80
2019-01-23T00:15:45.646Z,53.73
2019-01-23T00:18:40.104Z,50.07
2019-01-23T00:21:37.038Z,52.53
2019-01-23T00:24:31.719Z,50.80
2019-01-23T00:27:25.842Z,51.17
2019-01-23T00:30:20.352Z,54.80
2019-01-23T00:33:15.864Z,50.90
2019-01-23T00:36:10.695Z,54.23
2019-01-23T00:39:05.765Z,51.57
2019-01-23T00:41:59.851Z,54.47
2019-01-23T00:44:54.141Z,50.30
2019-01-23T00:47:48.672Z,51.80
2019-01-23T00:50:46.117Z,50.07
2019-01-23T00:53:40.771Z,51.23
2019-01-23T00:56:35.264Z,51.93
2019-01-23T00:59:29.678Z,54.20
2019-01-23T01:02:24.021Z,51.50
2019-01-23T01:05:20.890Z,50.73
2019-01-23T01:08:15.245Z,51.77
2019-01-23T01:11:09.453Z,53.60
2019-01-23T01:14:04.055Z,57.00
2019-01-23T01:16:58.399Z,54.53
2019-01-23T01:19:52.890Z,53.60
2019-01-23T01:22:47.313Z,53.10
2019-01-23T01:25:43.055Z,55.20
2019-01-23T01:28:37.991Z,58.60
2019-01-23T01:31:33.230Z,59.63
2019-01-23T01:34:27.462Z,62.60
2019-01-23T01:37:21.926Z,68.97
2019-01-23T01:40:17.453Z,70.63
2019-01-23T01:43:11.614Z,72.83
2019-01-23T01:46:06.027Z,78.60
2019-01-23T01:49:03.098Z,66.37
2019-01-23T01:51:57.239Z,79.00
2019-01-23T01:54:51.970Z,70.63
2019-01-23T01:57:46.484Z,79.97
2019-01-23T02:00:42.196Z,83.00
2019-01-23T02:03:36.435Z,74.33
2019-01-23T02:06:31.150Z,72.70
2019-01-23T02:09:25.321Z,71.27
2019-01-23T02:12:19.487Z,82.50
2019-01-23T02:15:14.774Z,90.07
2019-01-23T02:18:09.543Z,89.93
2019-01-23T02:21:04.152Z,88.57
2019-01-23T02:23:59.779Z,89.17
2019-01-23T02:26:54.791Z,90.33
2019-01-23T02:29:48.957Z,91.57
2019-01-23T02:32:44.848Z,84.30
2019-01-23T02:35:39.623Z,86.43
2019-01-23T02:38:34.176Z,80.87
2019-01-23T02:41:28.485Z,78.07
2019-01-23T02:44:23.250Z,79.07
2019-01-23T02:47:17.388Z,77.43
2019-01-23T02:50:11.924Z,78.67
2019-01-23T02:53:06.032Z,102.57
2019-01-23T02:56:00.717Z,107.90
2019-01-23T02:58:55.074Z,98.77
2019-01-23T03:01:49.410Z,130.93
2019-01-23T03:04:44.135Z,125.47
2019-01-23T03:07:39.249Z,103.23
2019-01-23T03:10:34.045Z,88.93
2019-01-23T03:13:28.836Z,181.47
2019-01-23T03:16:23.612Z,105.50
2019-01-23T03:19:18.948Z,118.37
2019-01-23T03:22:14.318Z,151.67
2019-01-23T03:25:12.076Z,126.80
2019-01-23T03:28:06.390Z,152.20
2019-01-23T03:31:01.230Z,139.97
2019-01-23T03:33:57.147Z,144.07
2019-01-23T03:36:52.095Z,132.57
2019-01-23T03:39:46.894Z,136.23
2019-01-23T03:42:41.865Z,138.30
2019-01-23T03:45:37.127Z,136.33
2019-01-23T03:48:38.981Z,139.70
2019-01-23T03:51:36.190Z,135.03
2019-01-23T03:54:30.973Z,129.57
2019-01-23T03:57:25.435Z,136.53
2019-01-23T04:00:22.325Z,132.67
2019-01-23T04:03:18.205Z,135.53
2019-01-23T05:03:49.093Z,169.63
2019-01-23T05:06:46.734Z,163.83
2019-01-23T05:09:41.888Z,160.97
2019-01-23T05:12:37.892Z,159.17
2019-01-23T05:15:45.712Z,159.03
2019-01-23T05:18:43.441Z,157.53
2019-01-23T05:21:41.723Z,156.07
2019-01-23T05:24:36.905Z,158.97
2019-01-23T05:27:32.014Z,157.70
2019-01-23T05:30:30.772Z,151.63
2019-01-23T05:33:27.389Z,145.83
2019-01-23T05:36:23.735Z,140.30
2019-01-23T05:39:23.521Z,140.33
2019-01-23T05:42:24.226Z,133.87
2019-01-23T05:45:29.675Z,126.27
2019-01-23T05:48:30.094Z,132.67
2019-01-23T05:51:34.933Z,114.27
2019-01-23T05:54:56.033Z,118.90
2019-01-23T05:57:59.412Z,111.13
2019-01-23T06:04:35.586Z,102.93
2019-01-23T06:07:46.470Z,91.53
2019-01-23T06:11:07.240Z,86.30
2019-01-23T06:14:08.674Z,96.63
2019-01-23T06:17:11.422Z,94.67
2019-01-23T06:20:14.504Z,92.10
2019-01-23T06:23:10.667Z,87.90
2019-01-23T06:26:05.962Z,86.00
2019-01-23T06:29:03.353Z,84.57
2019-01-23T06:32:17.163Z,75.27
2019-01-23T06:35:23.887Z,75.40
2019-01-23T06:38:20.390Z,73.83
2019-01-23T06:41:14.852Z,74.93
2019-01-23T06:44:17.197Z,74.97
2019-01-23T06:47:14.549Z,73.20
2019-01-23T06:50:29.578Z,70.63
2019-01-23T06:53:35.062Z,65.47
2019-01-23T06:56:41.226Z,69.80
2019-01-23T06:59:38.029Z,66.10
2019-01-23T07:03:09.627Z,61.85
2019-01-23T07:06:11.617Z,66.40
2019-01-23T07:09:12.192Z,63.87
2019-01-23T07:12:12.305Z,56.30
2019-01-23T07:20:05.219Z,54.40
2019-01-23T07:26:27.215Z,52.80
2019-01-23T07:33:25.471Z,51.17
2019-01-23T07:36:47.543Z,50.57
2019-01-23T07:39:48.577Z,49.10
2019-01-23T07:42:45.554Z,47.93
2019-01-23T07:45:42.623Z,49.87
2019-01-23T07:48:40.379Z,45.17
2019-01-23T07:51:39.555Z,45.97
2019-01-23T07:54:42.517Z,46.93
2019-01-23T07:57:40.896Z,42.87
2019-01-23T08:00:48.482Z,45.57
2019-01-23T08:03:47.561Z,44.27
2019-01-23T08:06:42.368Z,43.93
2019-01-23T08:09:45.019Z,44.87
2019-01-23T08:12:57.924Z,45.87
2019-01-23T08:16:17.254Z,41.70
2019-01-23T08:19:39.079Z,39.23
2019-01-23T08:22:33.524Z,36.93
2019-01-23T08:26:26.095Z,36.30
2019-01-23T08:29:16.408Z,36.30
2019-01-23T08:32:15.464Z,36.53
2019-01-23T08:35:12.224Z,37.03
2019-01-23T08:38:22.592Z,33.13
2019-01-23T08:41:36.733Z,33.47
2019-01-23T08:44:35.586Z,31.90
2019-01-23T08:47:42.784Z,32.97
2019-01-23T08:50:42.537Z,32.53
2019-01-23T08:53:43.242Z,30.30
2019-01-23T08:56:38.957Z,29.00
2019-01-23T08:59:38.924Z,31.23
2019-01-23T09:03:10.208Z,29.73
2019-01-23T09:06:04.586Z,28.50
2019-01-23T09:09:01.137Z,28.63
2019-01-23T09:12:21.981Z,27.93
2019-01-23T09:25:22.339Z,26.67
2019-01-23T09:28:19.223Z,27.53
2019-01-23T09:31:48.160Z,28.00
2019-01-23T09:35:53.840Z,26.57
2019-01-23T09:39:23.009Z,27.93
2019-01-23T09:50:51.725Z,26.67
2019-01-23T09:54:18.023Z,26.93
2019-01-23T09:57:28.715Z,27.00
2019-01-23T10:01:01.909Z,26.87
2019-01-23T10:08:33.485Z,27.57
2019-01-23T10:15:10.441Z,26.03
2019-01-23T10:19:01.019Z,26.13
2019-01-23T10:22:11.394Z,26.93
2019-01-23T10:26:05.870Z,26.80
2019-01-23T10:32:11.837Z,28.83
2019-01-23T10:35:14.685Z,26.50
2019-01-23T10:38:13.561Z,27.87
2019-01-23T10:41:12.136Z,27.37
2019-01-23T10:44:09.972Z,27.03
2019-01-23T10:47:05.597Z,27.53
2019-01-23T10:50:03.037Z,27.93
2019-01-23T10:52:58.091Z,28.07
2019-01-23T10:55:53.347Z,27.20
2019-01-23T11:07:08.307Z,28.40
2019-01-23T11:10:16.432Z,26.40
2019-01-23T11:16:28.270Z,27.67
2019-01-23T11:19:37.856Z,26.00
2019-01-23T11:22:36.823Z,28.15
2019-01-23T11:25:35.597Z,26.03
2019-01-23T11:28:30.989Z,26.73
2019-01-23T11:32:16.264Z,27.13
2019-01-23T11:35:50.136Z,27.27
2019-01-23T11:38:54.431Z,26.57
2019-01-23T11:41:51.491Z,26.03
2019-01-23T11:44:52.029Z,26.23
2019-01-23T11:47:48.392Z,26.60
2019-01-23T11:51:47.623Z,27.30
2019-01-23T12:16:57.866Z,29.57
2019-01-23T12:20:03.439Z,32.50
2019-01-23T12:23:39.899Z,32.33
2019-01-23T12:26:59.886Z,30.30
2019-01-23T12:42:48.484Z,33.40
2019-01-23T12:55:25.220Z,34.67
2019-01-23T12:58:20.526Z,38.00
2019-01-23T13:01:16.174Z,38.23
2019-01-23T13:07:38.012Z,37.20
2019-01-23T13:14:14.946Z,39.00
2019-01-23T13:31:38.072Z,44.77
2019-01-23T13:34:32.957Z,45.57
2019-01-23T13:37:46.162Z,46.93
2019-01-23T13:47:06.629Z,53.37
